Time;durP1;ratioP1;P1;durP2;ratioP2;P2;SDS_P1;SDS_P2;PMS_P1;PMS_P2;Temp;Humidity;BMP_temperature;BMP_pressure;BME280_temperature;BME280_humidity;BME280_pressure;Samples;Min_cycle;Max_cycle;Signal;HPM_P1;HPM_P2
2020/12/22 00:01:03;;;;;;;25.30;11.67;;;;;;;-147.27;100.00;65176.34;5012099;28;20413;-60
2020/12/22 00:03:29;;;;;;;18.53;12.23;;;;;;;-147.27;100.00;65176.34;5012488;28;20037;-61
2020/12/22 00:05:54;;;;;;;20.00;13.07;;;;;;;-147.27;100.00;65176.34;5011807;28;20450;-61
2020/12/22 00:08:20;;;;;;;19.60;12.87;;;;;;;-147.27;100.00;65176.34;5012402;28;20401;-62
2020/12/22 00:10:45;;;;;;;30.33;14.80;;;;;;;-147.27;100.00;65176.34;5011817;28;20026;-62
2020/12/22 00:13:10;;;;;;;18.23;12.70;;;;;;;-147.27;100.00;65176.34;5011845;28;20048;-61
2020/12/22 00:15:36;;;;;;;20.52;12.15;;;;;;;-147.27;100.00;65176.34;5011421;28;20038;-59
2020/12/22 00:18:01;;;;;;;20.83;12.53;;;;;;;-147.27;100.00;65176.34;5012287;28;20105;-61
2020/12/22 00:20:27;;;;;;;14.87;11.07;;;;;;;-147.27;100.00;65176.34;5012047;28;20052;-61
2020/12/22 00:22:52;;;;;;;29.37;11.53;;;;;;;-147.27;100.00;65176.34;5011560;28;20042;-61
2020/12/22 00:25:18;;;;;;;14.77;10.33;;;;;;;-147.27;100.00;65176.34;5011502;28;20054;-61
2020/12/22 00:27:43;;;;;;;11.93;8.63;;;;;;;-147.27;100.00;65176.34;5011652;28;20077;-60
2020/12/22 00:30:09;;;;;;;11.93;8.50;;;;;;;-147.27;100.00;65176.34;5011976;28;20117;-60
2020/12/22 00:32:35;;;;;;;12.77;8.80;;;;;;;-147.27;100.00;65176.34;5011493;28;20395;-58
2020/12/22 00:35:01;;;;;;;;;;;;;;;-147.27;100.00;65176.34;5012222;28;20107;-60
2020/12/22 00:37:26;;;;;;;11.07;7.80;;;;;;;-147.27;100.00;65176.34;5012081;28;19913;-61
2020/12/22 00:39:52;;;;;;;9.40;7.22;;;;;;;-147.27;100.00;65176.34;5011000;28;20036;-59
2020/12/22 00:42:17;;;;;;;13.27;7.67;;;;;;;-147.27;100.00;65176.34;5011833;28;20084;-61
2020/12/22 00:44:43;;;;;;;11.47;7.00;;;;;;;-147.27;100.00;65176.34;5009908;28;20148;-61
2020/12/22 00:47:08;;;;;;;7.80;5.73;;;;;;;-147.27;100.00;65176.34;5011541;28;20121;-59
2020/12/22 00:49:34;;;;;;;8.55;6.40;;;;;;;-147.27;100.00;65176.34;5010473;28;20046;-60
2020/12/22 00:51:59;;;;;;;8.23;6.57;;;;;;;-147.27;100.00;65176.34;5009776;28;20042;-61
2020/12/22 00:54:26;;;;;;;10.57;6.17;;;;;;;-147.27;100.00;65176.34;5021884;28;20147;-60
2020/12/22 00:56:52;;;;;;;7.55;4.93;;;;;;;-147.27;100.00;65176.34;5029174;28;20282;-60
2020/12/22 00:59:25;;;;;;;8.47;4.80;;;;;;;-147.27;100.00;65176.34;5014666;28;20050;-60
2020/12/22 01:01:51;;;;;;;36.20;5.17;;;;;;;-147.27;100.00;65176.34;5029386;28;20351;-60
2020/12/22 01:04:16;;;;;;;5.47;4.00;;;;;;;-147.27;100.00;65176.34;5020235;28;20045;-61
2020/12/22 01:06:42;;;;;;;5.20;3.40;;;;;;;-147.27;100.00;65176.34;5026210;28;20460;-60
2020/12/22 01:09:08;;;;;;;25.73;4.40;;;;;;;-147.27;100.00;65176.34;5011626;28;20141;-61
2020/12/22 01:11:39;;;;;;;5.68;3.50;;;;;;;-147.27;100.00;65176.34;5011512;28;20493;-60
2020/12/22 01:14:05;;;;;;;8.97;3.93;;;;;;;-147.27;100.00;65176.34;5029359;28;20404;-60
2020/12/22 01:16:31;;;;;;;16.27;4.00;;;;;;;-147.27;100.00;65176.34;5018945;28;20247;-60
2020/12/22 01:18:56;;;;;;;4.80;3.10;;;;;;;-147.27;100.00;65176.34;5010977;28;20034;-62
2020/12/22 01:21:22;;;;;;;18.60;4.70;;;;;;;-147.27;100.00;65176.34;5011466;28;20092;-62
2020/12/22 01:23:48;;;;;;;5.93;3.75;;;;;;;-147.27;100.00;65176.34;5028031;28;20104;-61
2020/12/22 01:26:18;;;;;;;4.78;3.25;;;;;;;-147.27;100.00;65176.34;5031138;28;20459;-62
2020/12/22 01:28:44;;;;;;;7.30;4.00;;;;;;;-147.27;100.00;65176.34;5030534;28;20029;-61
2020/12/22 01:31:09;;;;;;;6.57;4.80;;;;;;;-147.27;100.00;65176.34;5031219;28;20381;-62
2020/12/22 01:33:35;;;;;;;7.07;4.82;;;;;;;-147.27;100.00;65176.34;5031088;28;20042;-60
2020/12/22 01:36:00;;;;;;;11.30;5.17;;;;;;;-147.27;100.00;65176.34;5030644;28;20457;-60
2020/12/22 01:38:26;;;;;;;18.60;6.03;;;;;;;-147.27;100.00;65176.34;5033045;28;20051;-61
2020/12/22 01:40:51;;;;;;;9.07;5.67;;;;;;;-147.27;100.00;65176.34;5034426;28;20107;-61
2020/12/22 01:43:17;;;;;;;14.13;5.37;;;;;;;-147.27;100.00;65176.34;5034519;28;20034;-62
2020/12/22 01:45:42;;;;;;;8.93;5.60;;;;;;;-147.27;100.00;65176.34;5034298;28;20043;-60
2020/12/22 01:48:09;;;;;;;8.50;5.17;;;;;;;-147.27;100.00;65176.34;5034862;28;20103;-61
2020/12/22 01:50:35;;;;;;;8.63;4.97;;;;;;;-147.27;100.00;65176.34;5034754;28;20048;-61
2020/12/22 01:53:00;;;;;;;7.18;4.70;;;;;;;-147.27;100.00;65176.34;5034086;28;20266;-60
2020/12/22 01:55:26;;;;;;;7.30;4.00;;;;;;;-147.27;100.00;65176.34;5026905;28;20084;-61
2020/12/22 01:57:51;;;;;;;5.93;3.60;;;;;;;-147.27;100.00;65176.34;5023193;28;20030;-61
2020/12/22 02:00:17;;;;;;;5.60;3.65;;;;;;;-147.27;100.00;65176.34;5023196;28;20041;-61
2020/12/22 02:02:43;;;;;;;4.53;3.13;;;;;;;-147.27;100.00;65176.34;5022676;28;20044;-61
2020/12/22 02:05:08;;;;;;;5.15;3.30;;;;;;;-147.27;100.00;65176.34;5025251;28;20413;-61
2020/12/22 02:07:35;;;;;;;4.38;3.15;;;;;;;-147.27;100.00;65176.34;5023960;28;20037;-61
2020/12/22 02:10:01;;;;;;;4.37;2.93;;;;;;;-147.27;100.00;65176.34;5033504;28;20486;-61
2020/12/22 02:12:27;;;;;;;4.75;3.40;;;;;;;-147.27;100.00;65176.34;5034268;28;20262;-61
2020/12/22 02:14:52;;;;;;;5.87;3.50;;;;;;;-147.27;100.00;65176.34;5033433;28;20168;-61
2020/12/22 02:17:18;;;;;;;13.97;3.60;;;;;;;-147.27;100.00;65176.34;5034284;28;20484;-61
2020/12/22 02:19:43;;;;;;;12.00;3.57;;;;;;;-147.27;100.00;65176.34;5033951;28;20116;-60
2020/12/22 02:22:09;;;;;;;6.35;3.40;;;;;;;-147.27;100.00;65176.34;5034303;28;20332;-60
2020/12/22 02:24:35;;;;;;;7.27;3.87;;;;;;;-147.27;100.00;65176.34;5034079;28;20466;-60
2020/12/22 02:27:03;;;;;;;5.18;3.25;;;;;;;-147.27;100.00;65176.34;5031761;28;20091;-60
2020/12/22 02:29:29;;;;;;;8.27;3.90;;;;;;;-147.27;100.00;65176.34;5016238;28;20045;-61
2020/12/22 02:32:00;;;;;;;5.23;3.70;;;;;;;-147.27;100.00;65176.34;5013722;28;20271;-61
2020/12/22 02:34:26;;;;;;;7.33;4.73;;;;;;;-147.27;100.00;65176.34;5022221;28;20270;-61
2020/12/22 02:36:52;;;;;;;8.43;3.95;;;;;;;-147.27;100.00;65176.34;5031946;28;20360;-61
2020/12/22 02:39:17;;;;;;;7.10;4.22;;;;;;;-147.27;100.00;65176.34;5033826;28;20057;-61
2020/12/22 02:41:43;;;;;;;6.50;4.70;;;;;;;-147.27;100.00;65176.34;5032601;28;20073;-60
2020/12/22 02:44:08;;;;;;;6.90;4.83;;;;;;;-147.27;100.00;65176.34;5032733;28;20457;-61
2020/12/22 02:46:34;;;;;;;6.87;4.73;;;;;;;-147.27;100.00;65176.34;5032493;28;20033;-61
2020/12/22 02:49:01;;;;;;;10.93;5.83;;;;;;;-147.27;100.00;65176.34;5028272;28;20474;-61
2020/12/22 02:51:29;;;;;;;7.60;4.83;;;;;;;-147.27;100.00;65176.34;5029196;28;20060;-61
2020/12/22 02:53:55;;;;;;;6.83;4.90;;;;;;;-147.27;100.00;65176.34;4995639;28;20706;-61
2020/12/22 02:56:20;;;;;;;6.33;4.60;;;;;;;-147.27;100.00;65176.34;5013926;28;20306;-61
2020/12/22 02:58:47;;;;;;;6.13;4.75;;;;;;;-147.27;100.00;65176.34;5013655;28;20470;-62
2020/12/22 03:01:12;;;;;;;;;;;;;;;-147.27;100.00;65176.34;5014039;28;20136;-60
2020/12/22 03:03:38;;;;;;;6.73;4.60;;;;;;;-147.27;100.00;65176.34;5013664;28;20369;-61
2020/12/22 03:06:03;;;;;;;8.17;4.20;;;;;;;-147.27;100.00;65176.34;5013115;28;20038;-61
2020/12/22 03:08:29;;;;;;;6.23;4.40;;;;;;;-147.27;100.00;65176.34;5013413;28;20040;-61
2020/12/22 03:10:55;;;;;;;7.78;4.00;;;;;;;-147.27;100.00;65176.34;5013026;28;20049;-62
2020/12/22 03:13:20;;;;;;;6.70;4.30;;;;;;;-147.27;100.00;65176.34;5013756;28;20033;-61
2020/12/22 03:15:46;;;;;;;7.33;4.43;;;;;;;-147.27;100.00;65176.34;5012405;28;20458;-62
2020/12/22 03:18:11;;;;;;;7.87;4.33;;;;;;;-147.27;100.00;65176.34;5013016;28;20485;-63
2020/12/22 03:20:37;;;;;;;5.37;3.63;;;;;;;-147.27;100.00;65176.34;5012182;28;20394;-61
2020/12/22 03:23:02;;;;;;;5.93;3.57;;;;;;;-147.27;100.00;65176.34;5012688;28;20472;-60
2020/12/22 03:25:28;;;;;;;11.35;3.92;;;;;;;-147.27;100.00;65176.34;5013426;28;20038;-60
2020/12/22 03:27:53;;;;;;;4.93;3.40;;;;;;;-147.27;100.00;65176.34;5012672;28;20042;-60
2020/12/22 03:30:19;;;;;;;10.77;4.03;;;;;;;-147.27;100.00;65176.34;5013041;28;20557;-61
2020/12/22 03:32:44;;;;;;;8.80;3.60;;;;;;;-147.27;100.00;65176.34;5011003;28;20038;-60
2020/12/22 03:35:10;;;;;;;5.53;3.90;;;;;;;-147.27;100.00;65176.34;5018486;28;20491;-61
2020/12/22 03:37:37;;;;;;;8.23;3.50;;;;;;;-147.27;100.00;65176.34;5032541;28;20044;-60
2020/12/22 03:40:05;;;;;;;8.07;3.83;;;;;;;-147.27;100.00;65176.34;5032230;28;20029;-60
2020/12/22 03:42:31;;;;;;;6.07;3.87;;;;;;;-147.27;100.00;65176.34;5032899;28;20321;-60
2020/12/22 03:44:57;;;;;;;5.90;3.85;;;;;;;-147.27;100.00;65176.34;5031762;28;20746;-61
2020/12/22 03:47:23;;;;;;;6.68;4.13;;;;;;;-147.27;100.00;65176.34;5031410;28;20036;-59
2020/12/22 03:49:48;;;;;;;8.70;4.53;;;;;;;-147.27;100.00;65176.34;5032500;28;20092;-61
2020/12/22 03:52:14;;;;;;;10.30;4.37;;;;;;;-147.27;100.00;65176.34;5031907;28;20424;-61
2020/12/22 03:54:39;;;;;;;7.47;4.10;;;;;;;-147.27;100.00;65176.34;5024000;28;20607;-61
2020/12/22 03:57:06;;;;;;;15.23;4.20;;;;;;;-147.27;100.00;65176.34;5011735;28;20061;-61
2020/12/22 03:59:32;;;;;;;5.00;3.10;;;;;;;-147.27;100.00;65176.34;5027605;28;20109;-60
2020/12/22 04:02:01;;;;;;;7.23;3.63;;;;;;;-147.27;100.00;65176.34;5011232;28;20136;-60
2020/12/22 04:04:27;;;;;;;10.97;4.10;;;;;;;-147.27;100.00;65176.34;4995188;28;20303;-61
2020/12/22 04:06:53;;;;;;;6.57;4.00;;;;;;;-147.27;100.00;65176.34;5012948;28;20295;-61
2020/12/22 04:09:19;;;;;;;6.65;4.15;;;;;;;-147.27;100.00;65176.34;5012509;28;20777;-62
2020/12/22 04:11:45;;;;;;;7.87;4.70;;;;;;;-147.27;100.00;65176.34;5020936;28;20042;-61
2020/12/22 04:14:11;;;;;;;6.95;4.53;;;;;;;-147.27;100.00;65176.34;5031269;28;20569;-61
2020/12/22 04:16:37;;;;;;;16.50;5.82;;;;;;;-147.27;100.00;65176.34;5032125;28;20072;-61
2020/12/22 04:19:03;;;;;;;12.70;5.53;;;;;;;-147.27;100.00;65176.34;5031467;28;20109;-61
2020/12/22 04:21:30;;;;;;;13.73;5.88;;;;;;;-147.27;100.00;65176.34;5031966;28;20037;-60
2020/12/22 04:23:56;;;;;;;;;;;;;;;-147.27;100.00;65176.34;5031641;28;20041;-59
2020/12/22 04:26:21;;;;;;;9.10;5.73;;;;;;;-147.27;100.00;65176.34;5031620;28;19917;-62
2020/12/22 04:28:47;;;;;;;11.43;4.63;;;;;;;-147.27;100.00;65176.34;5031955;28;20079;-61
2020/12/22 04:31:12;;;;;;;8.00;4.45;;;;;;;-147.27;100.00;65176.34;5030918;28;20029;-62
2020/12/22 04:33:38;;;;;;;8.07;3.97;;;;;;;-147.27;100.00;65176.34;5030499;28;20041;-61
2020/12/22 04:36:04;;;;;;;7.55;3.50;;;;;;;-147.27;100.00;65176.34;5029783;28;20140;-61
2020/12/22 04:38:31;;;;;;;5.20;3.40;;;;;;;-147.27;100.00;65176.34;5030232;28;20042;-61
2020/12/22 04:40:57;;;;;;;;;;;;;;;-147.27;100.00;65176.34;5031564;28;20033;-59
2020/12/22 04:43:22;;;;;;;6.60;2.70;;;;;;;-147.27;100.00;65176.34;5031454;28;19917;-61
2020/12/22 04:45:50;;;;;;;3.20;1.98;;;;;;;-147.27;100.00;65176.34;5031284;28;20677;-61
2020/12/22 04:48:19;;;;;;;4.57;2.00;;;;;;;-147.27;100.00;65176.34;5030921;28;20037;-61
2020/12/22 04:50:47;;;;;;;3.70;2.30;;;;;;;-147.27;100.00;65176.34;5031424;28;20714;-60
2020/12/22 04:53:12;;;;;;;9.07;2.53;;;;;;;-147.27;100.00;65176.34;5031119;28;20349;-60
2020/12/22 04:55:38;;;;;;;8.50;2.55;;;;;;;-147.27;100.00;65176.34;5031350;28;20366;-61
2020/12/22 04:58:05;;;;;;;6.63;2.93;;;;;;;-147.27;100.00;65176.34;5030949;28;20079;-61
2020/12/22 05:00:31;;;;;;;4.97;2.50;;;;;;;-147.27;100.00;65176.34;5031281;28;20279;-60
2020/12/22 05:03:00;;;;;;;3.17;2.28;;;;;;;-147.27;100.00;65176.34;5031357;28;20742;-61
2020/12/22 05:05:25;;;;;;;7.40;2.90;;;;;;;-147.27;100.00;65176.34;5031654;28;20037;-61
2020/12/22 05:07:51;;;;;;;7.37;2.33;;;;;;;-147.27;100.00;65176.34;5031511;28;20749;-61
2020/12/22 05:10:16;;;;;;;10.00;2.47;;;;;;;-147.27;100.00;65176.34;5029541;28;20044;-60
2020/12/22 05:12:42;;;;;;;8.20;2.20;;;;;;;-147.27;100.00;65176.34;5033999;28;20045;-61
2020/12/22 05:15:09;;;;;;;5.60;3.22;;;;;;;-147.27;100.00;65176.34;5034813;28;20447;-60
2020/12/22 05:17:42;;;;;;;9.33;3.23;;;;;;;-147.27;100.00;65176.34;5015712;28;20501;-60
2020/12/22 05:20:11;;;;;;;7.70;3.27;;;;;;;-147.27;100.00;65176.34;5014774;28;20683;-61
2020/12/22 05:22:37;;;;;;;8.50;3.10;;;;;;;-147.27;100.00;65176.34;5015407;28;20287;-61
2020/12/22 05:25:04;;;;;;;4.00;2.50;;;;;;;-147.27;100.00;65176.34;5013681;28;20275;-59
2020/12/22 05:27:30;;;;;;;4.23;2.30;;;;;;;-147.27;100.00;65176.34;5015347;28;20088;-61
2020/12/22 05:29:59;;;;;;;9.48;3.35;;;;;;;-147.27;100.00;65176.34;5015378;28;20272;-60
2020/12/22 05:32:26;;;;;;;3.37;1.77;;;;;;;-147.27;100.00;65176.34;5014567;28;20135;-60
2020/12/22 05:34:52;;;;;;;;;;;;;;;-147.27;100.00;65176.34;5015737;28;20271;-60
2020/12/22 05:37:21;;;;;;;4.37;1.60;;;;;;;-147.27;100.00;65176.34;5014404;28;19914;-60
2020/12/22 05:39:47;;;;;;;5.83;1.20;;;;;;;-147.27;100.00;65176.34;5015326;28;20291;-61
2020/12/22 05:42:18;;;;;;;8.85;1.83;;;;;;;-147.27;100.00;65176.34;5014542;28;20469;-59
2020/12/22 05:44:51;;;;;;;6.73;1.90;;;;;;;-147.27;100.00;65176.34;5013889;28;20038;-60
2020/12/22 05:47:19;;;;;;;6.03;2.37;;;;;;;-147.27;100.00;65176.34;5014223;28;20329;-61
2020/12/22 05:49:52;;;;;;;6.87;2.80;;;;;;;-147.27;100.00;65176.34;5013729;28;20260;-60
2020/12/22 05:52:22;;;;;;;9.30;3.43;;;;;;;-147.27;100.00;65176.34;5014274;28;20818;-60
2020/12/22 05:54:53;;;;;;;9.37;4.10;;;;;;;-147.27;100.00;65176.34;5013720;28;20271;-61
2020/12/22 05:57:29;;;;;;;8.13;4.20;;;;;;;-147.27;100.00;65176.34;5013863;28;20275;-61
2020/12/22 05:59:55;;;;;;;18.83;6.10;;;;;;;-147.27;100.00;65176.34;5014864;28;20275;-60
2020/12/22 06:02:39;;;;;;;15.97;6.43;;;;;;;-147.27;100.00;65176.34;5014092;28;20283;-61
2020/12/22 06:05:05;;;;;;;13.30;5.93;;;;;;;-147.27;100.00;65176.34;5014115;28;20286;-60
2020/12/22 06:07:30;;;;;;;16.55;5.95;;;;;;;-147.27;100.00;65176.34;5014700;28;20272;-60
2020/12/22 06:09:56;;;;;;;20.80;7.17;;;;;;;-147.27;100.00;65176.34;5029806;28;20042;-61
2020/12/22 06:12:24;;;;;;;13.18;7.95;;;;;;;-147.27;100.00;65176.34;5014043;28;20149;-60
2020/12/22 06:14:53;;;;;;;18.43;7.57;;;;;;;-147.27;100.00;65176.34;5014477;28;20034;-61
2020/12/22 06:17:20;;;;;;;23.83;8.83;;;;;;;-147.27;100.00;65176.34;5013981;28;20298;-61
2020/12/22 06:19:48;;;;;;;18.50;8.00;;;;;;;-147.27;100.00;65176.34;5014057;28;20363;-61
2020/12/22 06:22:16;;;;;;;24.93;9.80;;;;;;;-147.27;100.00;65176.34;5013453;28;20271;-61
2020/12/22 06:24:42;;;;;;;17.37;9.97;;;;;;;-147.27;100.00;65176.34;5013617;28;20744;-60
2020/12/22 06:27:10;;;;;;;28.87;11.13;;;;;;;-147.27;100.00;65176.34;5013246;28;20277;-60
2020/12/22 06:29:42;;;;;;;30.10;11.47;;;;;;;-147.27;100.00;65176.34;5014042;28;20362;-61
2020/12/22 06:32:17;;;;;;;14.33;6.50;;;;;;;-147.27;100.00;65176.34;5020081;28;20278;-60
2020/12/22 06:34:46;;;;;;;17.33;6.00;;;;;;;-147.27;100.00;65176.34;5022361;28;20695;-60
2020/12/22 06:37:12;;;;;;;34.13;5.03;;;;;;;-147.27;100.00;65176.34;5029300;28;20253;-63
2020/12/22 06:39:40;;;;;;;11.10;3.75;;;;;;;-147.27;100.00;65176.34;5032750;28;20270;-59
2020/12/22 06:42:08;;;;;;;10.37;4.87;;;;;;;-147.27;100.00;65176.34;5032853;28;20030;-59
2020/12/22 06:44:35;;;;;;;17.37;5.10;;;;;;;-147.27;100.00;65176.34;5033130;28;20305;-61
2020/12/22 06:47:03;;;;;;;15.37;5.00;;;;;;;-147.27;100.00;65176.34;5031711;28;20278;-61
2020/12/22 06:49:49;;;;;;;10.07;3.97;;;;;;;-147.27;100.00;65176.34;5030728;28;20281;-60
2020/12/22 06:52:33;;;;;;;14.20;3.53;;;;;;;-147.27;100.00;65176.34;5030141;28;20290;-61
2020/12/22 06:54:59;;;;;;;8.53;2.77;;;;;;;-147.27;100.00;65176.34;5013429;28;20294;-60
2020/12/22 06:57:43;;;;;;;;;;;;;;;-147.27;100.00;65176.34;5032214;28;20357;-60
2020/12/22 07:00:22;;;;;;;5.73;2.07;;;;;;;-147.27;100.00;65176.34;5031731;28;19939;-58
2020/12/22 07:02:48;;;;;;;5.17;1.80;;;;;;;-147.27;100.00;65176.34;5032540;28;20365;-61
2020/12/22 07:05:40;;;;;;;10.27;1.90;;;;;;;-147.27;100.00;65176.34;5032124;28;20300;-61
2020/12/22 07:08:07;;;;;;;7.70;1.60;;;;;;;-147.27;100.00;65176.34;5045589;28;20069;-60
2020/12/22 07:10:38;;;;;;;6.40;2.10;;;;;;;-147.27;100.00;65176.34;5031413;28;20730;-60
2020/12/22 07:13:07;;;;;;;9.77;1.80;;;;;;;-147.27;100.00;65176.34;5032692;28;20282;-61
2020/12/22 07:15:42;;;;;;;6.20;1.50;;;;;;;-147.27;100.00;65176.34;5033041;28;20309;-60
2020/12/22 07:18:10;;;;;;;6.97;1.10;;;;;;;-147.27;100.00;65176.34;5032259;28;20278;-59
2020/12/22 07:20:38;;;;;;;9.53;2.13;;;;;;;-147.27;100.00;65176.34;5026662;28;20310;-60
2020/12/22 07:23:04;;;;;;;9.20;1.20;;;;;;;-147.27;100.00;65176.34;5011998;28;20301;-61
2020/12/22 07:25:30;;;;;;;10.18;1.17;;;;;;;-147.27;100.00;65176.34;5011615;28;20268;-61
2020/12/22 07:27:55;;;;;;;10.75;1.30;;;;;;;-147.27;100.00;65176.34;5010577;28;20045;-60
2020/12/22 07:30:20;;;;;;;6.10;1.43;;;;;;;-147.27;100.00;65176.34;5011505;28;20466;-60
2020/12/22 07:32:47;;;;;;;3.63;0.93;;;;;;;-147.27;100.00;65176.34;5011098;28;20042;-59
2020/12/22 07:35:13;;;;;;;7.00;2.15;;;;;;;-147.27;100.00;65176.34;5013057;28;20053;-60
2020/12/22 07:37:38;;;;;;;6.35;1.67;;;;;;;-147.27;100.00;65176.34;5020393;28;20057;-61
2020/12/22 07:40:12;;;;;;;9.13;1.97;;;;;;;-147.27;100.00;65176.34;5011978;28;20046;-59
2020/12/22 07:42:38;;;;;;;9.33;1.50;;;;;;;-147.27;100.00;65176.34;5011849;28;20063;-60
2020/12/22 07:45:07;;;;;;;7.93;1.92;;;;;;;-147.27;100.00;65176.34;5026814;28;20777;-60
2020/12/22 07:47:34;;;;;;;11.33;2.27;;;;;;;-147.27;100.00;65176.34;5009496;28;20554;-58
2020/12/22 07:50:14;;;;;;;21.23;2.83;;;;;;;-147.27;100.00;65176.34;5010924;28;20718;-60
2020/12/22 07:52:40;;;;;;;18.57;3.67;;;;;;;-147.27;100.00;65176.34;5017916;28;20314;-59
2020/12/22 07:55:07;;;;;;;7.73;1.80;;;;;;;-147.27;100.00;65176.34;5024744;28;20643;-61
2020/12/22 07:57:36;;;;;;;15.03;1.70;;;;;;;-147.27;100.00;65176.34;5029327;28;20332;-60
2020/12/22 08:00:10;;;;;;;15.80;2.37;;;;;;;-147.27;100.00;65176.34;5019557;28;20695;-57
2020/12/22 08:02:36;;;;;;;13.30;2.43;;;;;;;-147.27;100.00;65176.34;5024870;28;20286;-59
2020/12/22 08:05:14;;;;;;;9.93;2.00;;;;;;;-147.27;100.00;65176.34;5028031;28;20344;-59
2020/12/22 08:07:42;;;;;;;16.77;2.90;;;;;;;-147.27;100.00;65176.34;5029600;28;20068;-59
2020/12/22 08:10:15;;;;;;;13.17;2.73;;;;;;;-147.27;100.00;65176.34;5029280;28;20274;-59
2020/12/22 08:12:54;;;;;;;16.83;2.87;;;;;;;-147.27;100.00;65176.34;5030381;28;20365;-58
2020/12/22 08:15:20;;;;;;;20.73;2.77;;;;;;;-147.27;100.00;65176.34;5029420;28;20270;-59
2020/12/22 08:17:49;;;;;;;12.05;1.65;;;;;;;-147.27;100.00;65176.34;5029968;28;20278;-59
2020/12/22 08:20:15;;;;;;;12.37;2.07;;;;;;;-147.27;100.00;65176.34;5029984;28;20041;-59
2020/12/22 08:22:42;;;;;;;13.32;1.65;;;;;;;-147.27;100.00;65176.34;5030264;28;20287;-59
2020/12/22 08:25:07;;;;;;;;;;;;;;;-147.27;100.00;65176.34;5029461;28;20432;-60
2020/12/22 08:27:34;;;;;;;11.87;2.20;;;;;;;-147.27;100.00;65176.34;5029681;28;19917;-60
2020/12/22 08:30:00;;;;;;;11.00;1.85;;;;;;;-147.27;100.00;65176.34;5029803;28;20037;-57
2020/12/22 08:32:27;;;;;;;16.73;3.00;;;;;;;-147.27;100.00;65176.34;5029564;28;20129;-60
2020/12/22 08:34:53;;;;;;;16.00;2.92;;;;;;;-147.27;100.00;65176.34;5030016;28;20772;-60
2020/12/22 08:37:26;;;;;;;12.13;2.72;;;;;;;-147.27;100.00;65176.34;5024727;28;20084;-61
2020/12/22 08:39:52;;;;;;;14.53;4.57;;;;;;;-147.27;100.00;65176.34;5038228;28;20091;-60
2020/12/22 08:42:19;;;;;;;13.00;1.83;;;;;;;-147.27;100.00;65176.34;5013639;28;20279;-60
2020/12/22 08:44:52;;;;;;;17.00;2.93;;;;;;;-147.27;100.00;65176.34;5014611;28;20053;-59
2020/12/22 08:47:19;;;;;;;23.50;2.40;;;;;;;-147.27;100.00;65176.34;5026389;28;20274;-60
2020/12/22 08:49:46;;;;;;;14.33;2.57;;;;;;;-147.27;100.00;65176.34;5031218;28;20433;-60
2020/12/22 08:52:14;;;;;;;;;;;;;;;-147.27;100.00;65176.34;5030814;28;20301;-60
2020/12/22 08:54:44;;;;;;;15.30;2.30;;;;;;;-147.27;100.00;65176.34;5031713;28;19913;-61
2020/12/22 08:57:23;;;;;;;16.87;3.23;;;;;;;-147.27;100.00;65176.34;5026211;28;20754;-60
2020/12/22 08:59:48;;;;;;;14.60;1.93;;;;;;;-147.27;100.00;65176.34;5030259;28;20266;-59
2020/12/22 09:02:27;;;;;;;15.13;2.43;;;;;;;-147.27;100.00;65176.34;5010592;28;20275;-59
2020/12/22 09:04:52;;;;;;;14.83;2.20;;;;;;;-147.27;100.00;65176.34;5011288;28;20386;-61
2020/12/22 09:07:18;;;;;;;16.40;4.18;;;;;;;-147.27;100.00;65176.34;5010620;28;20275;-61
2020/12/22 09:09:43;;;;;;;16.43;2.87;;;;;;;-147.27;100.00;65176.34;5024264;28;21392;-60
2020/12/22 09:12:11;;;;;;;16.75;3.95;;;;;;;-147.27;100.00;65176.34;5009801;28;20092;-61
2020/12/22 09:14:44;;;;;;;21.30;3.93;;;;;;;-147.27;100.00;65176.34;5010250;28;20049;-60
2020/12/22 09:17:11;;;;;;;20.13;3.33;;;;;;;-147.27;100.00;65176.34;5025850;28;20283;-61
2020/12/22 09:19:47;;;;;;;23.33;2.70;;;;;;;-147.27;100.00;65176.34;5019481;28;20359;-60
2020/12/22 09:22:16;;;;;;;20.23;4.27;;;;;;;-147.27;100.00;65176.34;5010401;28;20307;-60
2020/12/22 09:24:42;;;;;;;12.60;2.30;;;;;;;-147.27;100.00;65176.34;5030933;28;20281;-59
2020/12/22 09:27:11;;;;;;;16.85;4.20;;;;;;;-147.27;100.00;65176.34;5030809;28;20274;-61
2020/12/22 09:29:39;;;;;;;15.10;4.03;;;;;;;-147.27;100.00;65176.34;5029907;28;20163;-60
2020/12/22 09:32:07;;;;;;;11.37;2.67;;;;;;;-147.27;100.00;65176.34;5025222;28;20287;-59
2020/12/22 09:34:34;;;;;;;18.37;3.70;;;;;;;-147.27;100.00;65176.34;5010423;28;20346;-61
2020/12/22 09:37:03;;;;;;;15.77;2.70;;;;;;;-147.27;100.00;65176.34;5009723;28;20279;-60
2020/12/22 09:39:29;;;;;;;13.47;3.00;;;;;;;-147.27;100.00;65176.34;5010600;28;20267;-61
2020/12/22 09:41:55;;;;;;;25.42;4.40;;;;;;;-147.27;100.00;65176.34;5020908;28;20270;-60
2020/12/22 09:44:21;;;;;;;22.37;4.27;;;;;;;-147.27;100.00;65176.34;5025271;28;20056;-60
2020/12/22 09:46:52;;;;;;;24.65;5.22;;;;;;;-147.27;100.00;65176.34;5019333;28;20470;-59
2020/12/22 09:49:18;;;;;;;16.93;4.03;;;;;;;-147.27;100.00;65176.34;5025096;28;20134;-58
2020/12/22 09:51:43;;;;;;;25.58;5.03;;;;;;;-147.27;100.00;65176.34;5030736;28;20293;-60
2020/12/22 09:54:09;;;;;;;23.43;3.97;;;;;;;-147.27;100.00;65176.34;5045496;28;20480;-60
2020/12/22 09:56:35;;;;;;;13.35;4.22;;;;;;;-147.27;100.00;65176.34;5029119;28;20558;-60
2020/12/22 09:59:00;;;;;;;17.27;3.87;;;;;;;-147.27;100.00;65176.34;5031178;28;20033;-60
2020/12/22 10:01:27;;;;;;;21.90;5.80;;;;;;;-147.27;100.00;65176.34;5033161;28;20440;-61
2020/12/22 10:03:53;;;;;;;28.08;3.65;;;;;;;-147.27;100.00;65176.34;5034390;28;20041;-61
2020/12/22 10:06:21;;;;;;;24.77;4.38;;;;;;;-147.27;100.00;65176.34;5033580;28;20029;-58
2020/12/22 10:08:47;;;;;;;22.57;4.20;;;;;;;-147.27;100.00;65176.34;5034134;28;20038;-59
2020/12/22 10:11:13;;;;;;;26.02;4.72;;;;;;;-147.27;100.00;65176.34;5033831;28;20270;-59
2020/12/22 10:13:39;;;;;;;18.80;3.95;;;;;;;-147.27;100.00;65176.34;5033514;28;20041;-61
2020/12/22 10:16:09;;;;;;;17.67;3.92;;;;;;;-147.27;100.00;65176.34;5048624;28;20202;-61
2020/12/22 10:18:35;;;;;;;18.97;3.43;;;;;;;-147.27;100.00;65176.34;5033573;28;20041;-60
2020/12/22 10:21:07;;;;;;;14.75;4.22;;;;;;;-147.27;100.00;65176.34;5033889;28;20293;-59
2020/12/22 10:23:33;;;;;;;22.30;4.93;;;;;;;-147.27;100.00;65176.34;5033077;28;20396;-60
2020/12/22 10:26:02;;;;;;;32.30;7.53;;;;;;;-147.27;100.00;65176.34;5032229;28;20756;-58
2020/12/22 10:28:29;;;;;;;26.87;7.17;;;;;;;-147.27;100.00;65176.34;5032862;28;20083;-60
2020/12/22 10:30:54;;;;;;;31.15;6.68;;;;;;;-147.27;100.00;65176.34;5048551;28;20274;-60
2020/12/22 10:33:20;;;;;;;23.58;6.75;;;;;;;-147.27;100.00;65176.34;5032939;28;20338;-60
2020/12/22 10:35:45;;;;;;;36.47;6.50;;;;;;;-147.27;100.00;65176.34;5032222;28;20040;-60
2020/12/22 10:38:11;;;;;;;20.95;6.28;;;;;;;-147.27;100.00;65176.34;5033239;28;20508;-62
2020/12/22 10:40:37;;;;;;;28.77;6.18;;;;;;;-147.27;100.00;65176.34;5020567;28;20034;-60
2020/12/22 10:43:02;;;;;;;29.10;7.38;;;;;;;-147.27;100.00;65176.34;5013466;28;20038;-60
2020/12/22 10:45:28;;;;;;;32.30;5.93;;;;;;;-147.27;100.00;65176.34;5012921;28;20041;-61
2020/12/22 10:47:54;;;;;;;35.10;8.27;;;;;;;-147.27;100.00;65176.34;5028497;28;20041;-59
2020/12/22 10:50:20;;;;;;;33.72;8.13;;;;;;;-147.27;100.00;65176.34;5012041;28;20446;-59
2020/12/22 10:52:45;;;;;;;31.58;6.47;;;;;;;-147.27;100.00;65176.34;5013659;28;20086;-59
2020/12/22 10:55:11;;;;;;;29.47;6.13;;;;;;;-147.27;100.00;65176.34;5014072;28;20037;-60
2020/12/22 10:57:37;;;;;;;42.53;8.03;;;;;;;-147.27;100.00;65176.34;5032735;28;20529;-60
2020/12/22 11:00:05;;;;;;;26.20;7.07;;;;;;;-147.27;100.00;65176.34;5015637;28;20508;-59
2020/12/22 11:02:30;;;;;;;21.07;6.73;;;;;;;-147.27;100.00;65176.34;5013071;28;20041;-60
2020/12/22 11:04:56;;;;;;;19.67;4.97;;;;;;;-147.27;100.00;65176.34;5013405;28;20248;-59
2020/12/22 11:07:29;;;;;;;22.37;6.33;;;;;;;-147.27;100.00;65176.34;5012922;28;20034;-59